Time;durP1;ratioP1;P1;durP2;ratioP2;P2;SDS_P1;SDS_P2;PMS_P1;PMS_P2;Temp;Humidity;BMP_temperature;BMP_pressure;BME280_temperature;BME280_humidity;BME280_pressure;Samples;Min_cycle;Max_cycle;Signal;HPM_P1;HPM_P2
2022/04/27 07:58:36;;;;;;;10.68;7.88;;;;;;;9.71;61.28;102493.44;5364551;27;20594;-77
2022/04/27 08:01:08;;;;;;;13.65;7.60;;;;;;;9.82;60.82;102495.34;5346111;27;20039;-78
2022/04/27 08:03:39;;;;;;;9.55;7.28;;;;;;;9.87;60.41;102497.38;5344545;27;20019;-79
2022/04/27 08:06:10;;;;;;;12.27;7.20;;;;;;;9.92;60.11;102503.88;5343530;27;20115;-78
2022/04/27 08:08:42;;;;;;;11.25;7.75;;;;;;;10.05;59.69;102497.22;5353793;27;20039;-78
2022/04/27 08:11:14;;;;;;;8.45;7.15;;;;;;;10.06;58.75;102503.59;5364809;27;20063;-78
2022/04/27 08:13:45;;;;;;;10.30;7.10;;;;;;;10.22;58.46;102509.19;5365639;27;20062;-78
2022/04/27 08:16:17;;;;;;;7.80;6.13;;;;;;;10.30;57.63;102508.00;5364214;27;20046;-79
2022/04/27 08:18:50;;;;;;;13.00;6.95;;;;;;;10.41;56.64;102503.50;5364567;27;20369;-79
2022/04/27 08:21:23;;;;;;;8.68;5.10;;;;;;;10.47;55.09;102507.22;5365709;27;20019;-78
2022/04/27 08:23:54;;;;;;;8.15;6.03;;;;;;;10.43;53.61;102510.50;5365544;27;20526;-78
2022/04/27 08:26:26;;;;;;;6.38;4.45;;;;;;;10.47;52.64;102507.22;5364611;27;20031;-78
2022/04/27 08:28:57;;;;;;;7.20;4.50;;;;;;;10.57;53.04;102512.94;5365362;27;20027;-79
2022/04/27 08:31:28;;;;;;;8.80;4.93;;;;;;;10.69;53.23;102516.50;5365439;27;20023;-77
2022/04/27 08:34:00;;;;;;;8.77;5.65;;;;;;;10.74;52.54;102519.38;5353962;27;20054;-78
2022/04/27 08:36:31;;;;;;;6.28;4.43;;;;;;;10.76;53.35;102517.19;5343207;28;20026;-78
2022/04/27 08:39:04;;;;;;;7.57;5.30;;;;;;;10.94;53.26;102516.13;5343889;27;20055;-78
2022/04/27 08:41:38;;;;;;;7.55;5.00;;;;;;;10.98;52.04;102522.84;5342515;27;20024;-78
2022/04/27 08:44:11;;;;;;;8.00;4.63;;;;;;;10.88;51.00;102523.50;5343789;27;20484;-78
2022/04/27 08:46:43;;;;;;;6.05;4.70;;;;;;;10.88;51.50;102520.72;5342689;27;20024;-78
2022/04/27 08:49:16;;;;;;;8.32;5.50;;;;;;;11.03;52.63;102519.31;5343437;27;20050;-77
2022/04/27 08:51:48;;;;;;;9.00;5.90;;;;;;;11.17;51.00;102523.44;5343953;27;20485;-78
2022/04/27 08:54:20;;;;;;;7.50;4.65;;;;;;;11.20;50.58;102531.25;5342036;27;20123;-78
2022/04/27 08:56:52;;;;;;;6.15;5.45;;;;;;;11.09;50.10;102530.25;5343178;28;20107;-78
2022/04/27 08:59:24;;;;;;;8.20;5.03;;;;;;;11.18;50.65;102527.88;5361938;27;20027;-78
2022/04/27 09:01:55;;;;;;;9.13;5.93;;;;;;;11.30;50.43;102528.66;5364041;27;20026;-78
2022/04/27 09:04:27;;;;;;;8.18;5.25;;;;;;;11.42;50.58;102527.69;5364582;27;20054;-78
2022/04/27 09:07:15;;;;;;;7.30;5.70;;;;;;;11.65;51.11;102533.03;5363769;27;20035;-74
2022/04/27 09:09:47;;;;;;;8.30;5.68;;;;;;;11.68;50.30;102527.00;5331852;27;20076;-76
2022/04/27 09:12:19;;;;;;;6.28;5.40;;;;;;;11.71;50.27;102520.09;5328533;28;20020;-77
2022/04/27 09:14:50;;;;;;;7.72;5.95;;;;;;;11.88;49.80;102534.78;5327262;28;20196;-78
2022/04/27 09:23:29;;;;;;;6.75;6.03;;;;;;;11.89;49.92;102521.75;5327864;28;20123;-78
2022/04/27 09:26:14;;;;;;;8.52;6.35;;;;;;;11.87;48.42;102523.94;5328916;27;20073;-78
2022/04/27 09:28:47;;;;;;;8.77;5.60;;;;;;;11.64;49.01;102524.97;5337952;27;20098;-78
2022/04/27 09:31:32;;;;;;;7.80;6.20;;;;;;;11.63;48.82;102529.69;5349456;27;20466;-79
2022/04/27 09:37:13;;;;;;;8.98;5.97;;;;;;;11.50;48.84;102524.47;5348520;27;20439;-78
2022/04/27 09:39:46;;;;;;;8.82;6.10;;;;;;;11.56;48.99;102520.69;5349346;27;20019;-79
2022/04/27 09:42:32;;;;;;;7.45;6.72;;;;;;;11.77;48.54;102530.16;5348457;27;20323;-79
2022/04/27 09:45:22;;;;;;;;;;;;;;;12.03;48.49;102528.59;5349267;27;20072;-77
2022/04/27 09:48:03;;;;;;;7.65;6.40;;;;;;;12.14;48.76;102529.53;5348951;27;19935;-79
2022/04/27 09:50:55;;;;;;;6.72;6.03;;;;;;;12.35;48.07;102537.06;5348727;27;20473;-80
2022/04/27 09:53:26;;;;;;;9.68;6.75;;;;;;;12.18;46.82;102531.56;5349416;27;20026;-79
2022/04/27 09:55:59;;;;;;;11.50;7.25;;;;;;;12.13;47.12;102523.16;5349058;27;20023;-79
2022/04/27 09:58:32;;;;;;;10.15;7.10;;;;;;;12.26;47.49;102527.47;5345271;27;20517;-79
2022/04/27 10:01:05;;;;;;;9.50;6.65;;;;;;;12.54;47.54;102528.34;5347547;27;20069;-79
2022/04/27 10:03:39;;;;;;;7.63;6.93;;;;;;;12.45;47.13;102535.47;5349007;27;20493;-79
2022/04/27 10:06:11;;;;;;;9.27;6.60;;;;;;;12.61;47.64;102529.81;5348747;27;20034;-79
2022/04/27 10:08:42;;;;;;;10.68;7.72;;;;;;;12.64;47.06;102538.75;5331875;27;20019;-79
2022/04/27 10:11:14;;;;;;;9.93;7.28;;;;;;;12.62;47.09;102525.91;5326479;28;20106;-76
2022/04/27 10:13:45;;;;;;;8.00;7.25;;;;;;;12.64;46.87;102535.97;5327056;28;20480;-79
2022/04/27 10:16:17;;;;;;;10.43;7.00;;;;;;;12.99;47.33;102529.91;5327898;27;20035;-80
2022/04/27 10:18:49;;;;;;;11.88;7.00;;;;;;;12.89;46.66;102527.88;5324852;28;20531;-79
2022/04/27 10:21:39;;;;;;;9.73;7.22;;;;;;;12.80;47.50;102527.47;5326344;28;20027;-79
2022/04/27 10:24:11;;;;;;;8.63;7.47;;;;;;;12.74;46.62;102517.41;5327155;28;20459;-78
2022/04/27 10:26:43;;;;;;;8.35;6.72;;;;;;;12.94;46.63;102522.34;5326482;28;20044;-79
2022/04/27 10:29:15;;;;;;;9.75;7.80;;;;;;;13.13;47.11;102513.56;5341007;27;20027;-78
2022/04/27 10:31:47;;;;;;;10.00;7.50;;;;;;;13.11;46.61;102518.56;5347785;27;20478;-78
2022/04/27 10:34:23;;;;;;;7.68;6.88;;;;;;;13.24;46.43;102512.53;5326659;27;20046;-79
2022/04/27 10:36:57;;;;;;;8.23;7.40;;;;;;;13.44;46.42;102512.72;5327226;28;20091;-79
2022/04/27 10:39:33;;;;;;;12.47;7.40;;;;;;;13.43;45.65;102513.00;5326165;28;20538;-79
2022/04/27 10:42:04;;;;;;;10.20;8.02;;;;;;;13.38;45.18;102511.00;5326858;28;20059;-79
2022/04/27 10:44:47;;;;;;;10.73;8.27;;;;;;;13.42;45.52;102509.38;5326693;28;20059;-79
2022/04/27 10:47:21;;;;;;;9.65;8.50;;;;;;;13.18;44.94;102506.09;5325993;28;20085;-79
2022/04/27 10:50:10;;;;;;;9.20;8.30;;;;;;;13.11;45.96;102513.00;5327284;27;20034;-79
2022/04/27 10:52:43;;;;;;;8.60;7.32;;;;;;;13.07;46.25;102509.09;5326435;28;20063;-78
2022/04/27 10:55:40;;;;;;;9.07;8.18;;;;;;;13.02;45.92;102507.91;5325810;28;20046;-78
2022/04/27 10:58:26;;;;;;;9.23;8.02;;;;;;;12.70;46.00;102504.28;5341042;27;20081;-78
2022/04/27 11:00:57;;;;;;;10.23;7.60;;;;;;;12.95;45.91;102507.28;5346763;27;20034;-79
2022/04/27 11:03:36;;;;;;;10.37;8.27;;;;;;;13.19;45.45;102506.91;5347603;27;20023;-79
2022/04/27 11:06:10;;;;;;;11.05;8.25;;;;;;;13.42;45.57;102501.00;5346937;27;20273;-79
2022/04/27 11:09:09;;;;;;;7.78;7.03;;;;;;;13.62;45.67;102505.00;5329773;27;20078;-78
2022/04/27 11:11:52;;;;;;;32.80;29.30;;;;;;;13.97;45.32;102509.94;5326529;28;20023;-79
2022/04/27 11:14:34;;;;;;;21.60;19.27;;;;;;;13.93;44.33;102500.44;5325440;28;20031;-78
2022/04/27 11:17:06;;;;;;;19.63;16.73;;;;;;;13.92;44.83;102505.16;5325891;28;20035;-79
2022/04/27 11:19:39;;;;;;;9.93;7.80;;;;;;;13.90;43.90;102496.22;5325668;28;20466;-78
2022/04/27 11:22:12;;;;;;;8.70;7.80;;;;;;;13.85;45.08;102500.97;5325518;28;20050;-78
2022/04/27 11:24:48;;;;;;;8.65;7.75;;;;;;;13.71;44.65;102506.19;5326343;27;20050;-78
2022/04/27 11:27:26;;;;;;;10.02;7.95;;;;;;;13.60;45.23;102502.53;5326054;28;20024;-79
2022/04/27 11:29:58;;;;;;;10.05;7.55;;;;;;;13.55;45.48;102504.41;5325197;28;20043;-79
2022/04/27 11:32:33;;;;;;;9.55;7.53;;;;;;;13.61;44.80;102495.81;5325798;28;20411;-79
2022/04/27 11:35:05;;;;;;;8.82;7.93;;;;;;;13.87;44.51;102507.09;5325542;28;20028;-79
2022/04/27 11:37:37;;;;;;;9.93;7.68;;;;;;;13.80;44.50;102507.34;5325182;28;20360;-78
2022/04/27 11:40:19;;;;;;;8.32;7.50;;;;;;;13.97;44.15;102504.38;5326001;28;20027;-78
2022/04/27 11:42:51;;;;;;;10.95;7.70;;;;;;;14.14;43.73;102495.78;5324715;28;20106;-79
2022/04/27 11:45:25;;;;;;;7.65;6.95;;;;;;;14.30;43.22;102500.28;5325459;28;20107;-78
2022/04/27 11:48:02;;;;;;;9.05;8.20;;;;;;;14.35;42.65;102503.09;5325727;28;20027;-78
2022/04/27 11:50:37;;;;;;;8.35;7.55;;;;;;;14.51;42.66;102494.75;5325570;28;20133;-77
2022/04/27 11:53:13;;;;;;;12.63;7.90;;;;;;;14.36;43.51;102504.75;5325681;28;20471;-78
2022/04/27 11:55:49;;;;;;;8.27;7.47;;;;;;;14.44;43.41;102502.56;5325667;28;20600;-80
2022/04/27 11:58:26;;;;;;;8.70;6.75;;;;;;;14.62;42.92;102490.88;5325224;28;20449;-79
2022/04/27 12:00:58;;;;;;;7.35;6.15;;;;;;;14.67;42.68;102499.28;5325809;28;20031;-79
2022/04/27 12:03:30;;;;;;;7.55;6.13;;;;;;;14.59;42.64;102507.38;5324835;28;20062;-78
2022/04/27 12:06:01;;;;;;;7.40;6.13;;;;;;;14.62;43.38;102495.63;5325713;28;20055;-79
2022/04/27 12:08:33;;;;;;;7.88;7.07;;;;;;;14.58;43.71;102506.53;5340784;28;20034;-79
2022/04/27 12:11:04;;;;;;;8.25;7.13;;;;;;;14.45;43.73;102504.25;5346348;27;20526;-79
2022/04/27 12:13:36;;;;;;;8.45;7.00;;;;;;;14.50;44.01;102504.25;5346479;28;20029;-80
2022/04/27 12:16:08;;;;;;;11.20;7.60;;;;;;;14.60;44.17;102503.44;5345900;27;20022;-80
2022/04/27 12:18:53;;;;;;;7.88;7.00;;;;;;;14.82;43.31;102495.66;5345955;27;20035;-80
2022/04/27 12:21:25;;;;;;;11.85;7.60;;;;;;;14.92;42.14;102495.66;5346760;27;20047;-78
2022/04/27 12:23:56;;;;;;;7.90;7.05;;;;;;;15.16;42.75;102500.69;5346516;27;20445;-79
2022/04/27 12:26:40;;;;;;;11.50;7.60;;;;;;;15.37;42.64;102493.13;5346553;27;20015;-80
2022/04/27 12:29:11;;;;;;;12.02;10.73;;;;;;;15.45;42.17;102489.75;5347249;27;20031;-80
2022/04/27 12:31:43;;;;;;;11.60;8.18;;;;;;;15.39;41.74;102488.94;5338586;27;20142;-80
2022/04/27 12:39:54;;;;;;;47.65;41.85;;;;;;;15.08;42.56;102496.50;5324857;28;20027;-79
2022/04/27 12:42:26;;;;;;;10.45;7.57;;;;;;;14.83;41.91;102490.91;5324997;28;20348;-80
2022/04/27 12:45:07;;;;;;;7.63;6.93;;;;;;;15.01;42.29;102476.41;5328496;28;20039;-79
2022/04/27 12:47:45;;;;;;;8.57;6.75;;;;;;;15.26;42.55;102477.47;5328730;28;20020;-78
2022/04/27 12:50:17;;;;;;;10.75;7.75;;;;;;;15.25;41.74;102478.59;5350120;27;20080;-80
2022/04/27 12:52:49;;;;;;;8.48;7.03;;;;;;;15.28;42.09;102476.06;5350032;27;20027;-78
2022/04/27 12:55:21;;;;;;;10.48;7.53;;;;;;;15.51;41.66;102474.63;5350465;27;20516;-79
2022/04/27 12:57:57;;;;;;;8.70;7.90;;;;;;;15.50;41.62;102467.38;5350078;27;20039;-79
2022/04/27 13:00:40;;;;;;;8.60;6.75;;;;;;;15.80;41.02;102471.25;5349749;27;20023;-79
2022/04/27 13:03:13;;;;;;;10.50;7.55;;;;;;;15.80;40.71;102471.25;5351147;27;20046;-79
2022/04/27 13:05:45;;;;;;;14.32;9.23;;;;;;;15.92;40.03;102465.28;5349365;27;20031;-79
2022/04/27 13:08:18;;;;;;;8.60;7.13;;;;;;;16.26;40.55;102463.44;5336298;27;20047;-79
2022/04/27 13:13:42;;;;;;;9.95;7.10;;;;;;;16.36;38.94;102468.16;5328581;28;20508;-79
2022/04/27 13:16:13;;;;;;;8.20;7.38;;;;;;;16.30;39.06;102455.28;5329313;28;20035;-78
2022/04/27 13:18:45;;;;;;;10.80;6.63;;;;;;;16.57;39.18;102449.25;5330269;27;20016;-79
2022/04/27 13:21:19;;;;;;;8.10;7.30;;;;;;;15.92;39.59;102452.13;5329794;28;20016;-77
2022/04/27 13:23:50;;;;;;;8.13;7.20;;;;;;;16.05;39.71;102454.34;5334139;27;20023;-80
2022/04/27 13:26:24;;;;;;;10.13;6.85;;;;;;;15.94;39.68;102449.91;5350051;28;20034;-78
2022/04/27 13:28:56;;;;;;;9.82;6.78;;;;;;;16.18;39.58;102447.25;5361349;27;20435;-78
2022/04/27 13:31:27;;;;;;;9.20;7.32;;;;;;;16.47;39.09;102429.72;5367773;27;20062;-77
2022/04/27 13:33:59;;;;;;;8.43;6.82;;;;;;;16.90;39.08;102447.59;5372913;27;20038;-77
2022/04/27 13:36:30;;;;;;;8.57;6.50;;;;;;;17.03;38.50;102443.28;5363779;27;20020;-77
2022/04/27 13:39:01;;;;;;;9.23;7.13;;;;;;;17.07;37.93;102441.53;5349639;27;20031;-77
2022/04/27 13:41:32;;;;;;;9.45;7.50;;;;;;;16.97;37.73;102440.81;5349760;27;20027;-78
2022/04/27 13:44:04;;;;;;;8.68;6.88;;;;;;;16.66;38.22;102439.06;5349155;27;20386;-77
2022/04/27 13:46:35;;;;;;;7.80;6.82;;;;;;;16.05;39.48;102445.94;5349537;27;20374;-77
2022/04/27 13:49:07;;;;;;;8.15;7.28;;;;;;;16.44;39.27;102431.13;5348585;27;20027;-81
2022/04/27 13:51:38;;;;;;;14.30;12.77;;;;;;;16.65;39.41;102436.56;5351105;27;20471;-78
2022/04/27 13:54:10;;;;;;;30.02;25.10;;;;;;;16.96;39.40;102437.16;5349286;27;20019;-79
2022/04/27 13:56:41;;;;;;;7.75;6.93;;;;;;;16.92;38.54;102436.94;5348083;27;20039;-79
2022/04/27 13:59:13;;;;;;;9.10;7.35;;;;;;;16.85;38.60;102430.81;5349662;27;20374;-80
2022/04/27 14:01:45;;;;;;;11.13;7.55;;;;;;;17.16;38.65;102430.53;5349274;27;20015;-79
2022/04/27 14:04:16;;;;;;;10.32;6.93;;;;;;;17.34;38.23;102428.94;5349382;27;20023;-79
2022/04/27 14:06:50;;;;;;;8.90;7.55;;;;;;;17.41;37.84;102429.44;5348030;27;20023;-78
2022/04/27 14:09:22;;;;;;;16.08;7.90;;;;;;;17.28;37.26;102433.78;5326943;28;20467;-79
2022/04/27 14:14:44;;;;;;;7.30;6.47;;;;;;;17.69;37.04;102424.88;5344603;27;20106;-80
2022/04/27 14:20:06;;;;;;;7.75;6.93;;;;;;;17.25;37.71;102414.72;5349028;27;20039;-79
2022/04/27 14:22:37;;;;;;;8.77;6.63;;;;;;;17.37;38.09;102420.75;5348977;27;20027;-80
2022/04/27 14:25:11;;;;;;;9.02;6.55;;;;;;;17.33;37.49;102425.31;5347969;27;20614;-79
2022/04/27 14:27:42;;;;;;;10.13;7.80;;;;;;;17.68;37.44;102416.75;5349010;27;20104;-80
2022/04/27 14:30:13;;;;;;;8.05;6.18;;;;;;;17.70;37.48;102412.50;5344795;27;20016;-77
2022/04/27 14:32:45;;;;;;;7.78;6.78;;;;;;;17.78;37.58;102413.81;5326996;28;20059;-80
2022/04/27 14:35:17;;;;;;;8.52;7.30;;;;;;;17.58;37.15;102414.91;5327328;28;20032;-80
2022/04/27 14:37:48;;;;;;;10.07;6.75;;;;;;;17.90;37.64;102407.81;5326935;27;20027;-80
2022/04/27 14:40:22;;;;;;;12.82;6.95;;;;;;;17.64;36.69;102413.72;5326587;28;20028;-80
2022/04/27 14:42:54;;;;;;;9.02;8.18;;;;;;;17.81;37.31;102407.63;5327215;28;20474;-80
2022/04/27 14:45:25;;;;;;;6.22;5.63;;;;;;;17.80;36.95;102404.00;5326262;28;20023;-80
2022/04/27 14:47:56;;;;;;;8.98;6.35;;;;;;;17.68;37.00;102409.16;5336401;27;20015;-79
2022/04/27 14:50:28;;;;;;;9.25;6.95;;;;;;;17.57;37.11;102405.66;5348417;27;20023;-79
2022/04/27 14:53:02;;;;;;;8.32;6.28;;;;;;;17.66;37.40;102400.22;5348247;27;20485;-79
2022/04/27 14:55:33;;;;;;;11.95;10.70;;;;;;;17.57;37.49;102404.84;5348234;27;20482;-79
2022/04/27 14:58:04;;;;;;;21.52;18.67;;;;;;;17.65;37.80;102414.56;5347956;27;20047;-79
2022/04/27 15:00:36;;;;;;;11.63;6.32;;;;;;;17.44;37.70;102409.19;5347337;27;20164;-78
2022/04/27 15:03:07;;;;;;;7.53;6.00;;;;;;;17.29;37.63;102417.78;5347972;27;20053;-78
2022/04/27 15:05:40;;;;;;;9.02;6.07;;;;;;;17.08;37.80;102409.59;5346724;27;20027;-78
2022/04/27 15:08:11;;;;;;;7.72;6.95;;;;;;;16.97;38.51;102415.59;5333733;27;20044;-80
2022/04/27 15:10:44;;;;;;;10.10;6.85;;;;;;;16.63;38.51;102419.22;5327888;28;20502;-78
2022/04/27 15:13:16;;;;;;;7.53;5.82;;;;;;;16.77;38.50;102411.81;5327727;28;20029;-78
2022/04/27 15:15:47;;;;;;;6.97;6.07;;;;;;;16.79;38.54;102417.16;5329274;28;20027;-78
2022/04/27 15:18:18;;;;;;;7.70;6.40;;;;;;;16.71;38.64;102410.19;5329861;28;20027;-78
2022/04/27 15:23:46;;;;;;;8.82;7.93;;;;;;;16.73;38.69;102408.75;5326172;28;20032;-79
2022/04/27 15:26:18;;;;;;;15.82;13.80;;;;;;;16.88;38.54;102407.81;5326064;28;20111;-80
2022/04/27 15:28:49;;;;;;;8.57;7.35;;;;;;;16.90;38.50;102404.72;5336327;27;20440;-79
2022/04/27 15:31:20;;;;;;;8.45;6.60;;;;;;;16.55;38.44;102408.66;5347319;27;20023;-79
2022/04/27 15:33:52;;;;;;;8.27;7.32;;;;;;;16.83;38.72;102409.84;5347628;27;20027;-79
2022/04/27 15:36:23;;;;;;;7.65;6.82;;;;;;;16.93;38.80;102409.75;5346250;27;20026;-79
2022/04/27 15:38:54;;;;;;;7.53;6.15;;;;;;;16.78;38.38;102413.53;5346580;27;20458;-79
2022/04/27 15:41:26;;;;;;;8.80;6.22;;;;;;;16.75;38.66;102411.28;5346546;27;20026;-79
2022/04/27 15:43:57;;;;;;;7.22;6.38;;;;;;;16.69;38.79;102407.69;5347261;27;20023;-79
2022/04/27 15:46:29;;;;;;;7.30;6.63;;;;;;;16.79;38.78;102409.56;5347599;27;20053;-79
2022/04/27 15:49:01;;;;;;;7.93;7.00;;;;;;;16.47;39.02;102404.50;5346739;27;20019;-78
2022/04/27 15:51:36;;;;;;;8.45;7.03;;;;;;;16.30;39.82;102405.72;5347196;27;20550;-79
2022/04/27 15:54:08;;;;;;;12.20;9.05;;;;;;;16.56;39.52;102404.72;5347066;27;20408;-75
2022/04/27 15:56:39;;;;;;;10.50;9.43;;;;;;;16.57;39.41;102412.00;5345084;27;20047;-75
2022/04/27 15:59:12;;;;;;;11.75;9.75;;;;;;;16.43;39.60;102411.81;5347069;27;20079;-74
2022/04/27 16:01:48;;;;;;;10.07;8.80;;;;;;;16.48;39.51;102409.78;5346891;27;20031;-79
2022/04/27 16:04:19;;;;;;;;;;;;;;;16.69;39.28;102415.22;5346788;27;20119;-79
2022/04/27 16:06:52;;;;;;;9.90;7.50;;;;;;;16.70;39.04;102411.31;5346058;27;20417;-79
2022/04/27 16:09:25;;;;;;;8.38;6.40;;;;;;;16.71;39.16;102401.78;5325958;28;20285;-78
2022/04/27 16:11:56;;;;;;;9.18;7.63;;;;;;;16.89;39.62;102398.28;5327785;28;20020;-79
2022/04/27 16:14:27;;;;;;;12.73;11.40;;;;;;;16.79;39.18;102415.19;5327351;28;20072;-80
2022/04/27 16:16:59;;;;;;;10.15;7.40;;;;;;;16.97;39.04;102415.59;5325381;28;20115;-80
2022/04/27 16:19:30;;;;;;;7.65;6.95;;;;;;;16.95;38.85;102416.72;5328597;28;20068;-80
2022/04/27 16:24:52;;;;;;;6.95;5.90;;;;;;;17.05;38.82;102410.19;5329416;28;20032;-77
2022/04/27 16:27:23;;;;;;;6.75;6.05;;;;;;;16.91;39.05;102414.81;5329608;28;20028;-78
2022/04/27 16:29:54;;;;;;;8.48;7.47;;;;;;;17.01;39.43;102411.06;5340163;27;20024;-79
2022/04/27 16:32:26;;;;;;;7.40;6.72;;;;;;;17.07;39.13;102419.13;5328867;28;20038;-79
2022/04/27 16:35:18;;;;;;;10.35;6.57;;;;;;;17.09;39.06;102418.81;5330248;28;20027;-78
2022/04/27 16:37:49;;;;;;;7.97;6.95;;;;;;;16.95;38.89;102419.53;5328144;28;20043;-78
2022/04/27 16:40:20;;;;;;;9.50;6.97;;;;;;;16.88;39.14;102430.25;5329422;28;20028;-80
2022/04/27 16:42:51;;;;;;;7.95;7.15;;;;;;;16.74;39.25;102432.00;5328982;28;20016;-79
2022/04/27 16:45:25;;;;;;;6.78;6.15;;;;;;;16.94;39.05;102431.03;5328708;28;20031;-78
2022/04/27 16:47:57;;;;;;;8.57;6.50;;;;;;;17.06;39.12;102430.63;5329138;27;20036;-78
2022/04/27 16:50:28;;;;;;;7.78;7.03;;;;;;;17.06;39.14;102430.63;5329159;28;20034;-70
2022/04/27 16:52:59;;;;;;;8.40;6.80;;;;;;;17.05;38.98;102423.34;5328156;28;20117;-81
2022/04/27 16:55:31;;;;;;;6.97;5.75;;;;;;;17.12;39.02;102427.47;5329510;28;20058;-80
2022/04/27 16:58:02;;;;;;;7.30;6.55;;;;;;;17.12;38.90;102432.25;5341507;27;20050;-79
2022/04/27 17:00:52;;;;;;;7.55;6.85;;;;;;;17.05;38.93;102432.59;5350153;27;20474;-80
2022/04/27 17:03:25;;;;;;;8.93;6.78;;;;;;;17.06;38.65;102433.44;5349805;27;20031;-79
2022/04/27 17:05:58;;;;;;;8.63;6.20;;;;;;;17.06;38.64;102430.63;5350232;27;20070;-80
2022/04/27 17:08:29;;;;;;;11.63;10.45;;;;;;;17.18;39.17;102428.28;5335121;27;20024;-79
2022/04/27 17:11:01;;;;;;;9.77;6.75;;;;;;;17.05;39.08;102431.75;5328975;28;20101;-80
2022/04/27 17:13:33;;;;;;;7.68;5.57;;;;;;;17.12;39.12;102435.88;5328355;27;20447;-79
2022/04/27 17:16:08;;;;;;;9.68;7.82;;;;;;;16.81;39.08;102432.53;5328731;28;20026;-79
2022/04/27 17:18:42;;;;;;;7.13;5.93;;;;;;;16.77;39.40;102436.19;5328891;28;20234;-80
2022/04/27 17:21:13;;;;;;;6.35;5.72;;;;;;;16.69;39.57;102440.44;5328648;27;20447;-78
2022/04/27 17:23:45;;;;;;;6.68;6.03;;;;;;;16.51;39.95;102434.44;5328445;28;20157;-78
2022/04/27 17:29:07;;;;;;;7.38;5.70;;;;;;;16.07;41.67;102438.06;5340596;27;20027;-80
